sensor_id;sensor_type;location;lat;lon;timestamp;temperature;humidity
41694;DHT22;27377;50.666;9.150;2022-11-15T00:01:22;9.80;99.90
41694;DHT22;27377;50.666;9.150;2022-11-15T00:03:51;9.90;99.90
41694;DHT22;27377;50.666;9.150;2022-11-15T00:06:17;9.80;99.90
41694;DHT22;27377;50.666;9.150;2022-11-15T00:08:42;9.90;99.90
41694;DHT22;27377;50.666;9.150;2022-11-15T00:11:10;9.90;99.90
41694;DHT22;27377;50.666;9.150;2022-11-15T00:13:36;9.90;99.90
41694;DHT22;27377;50.666;9.150;2022-11-15T00:16:02;9.90;99.90
41694;DHT22;27377;50.666;9.150;2022-11-15T00:18:29;9.90;99.90
41694;DHT22;27377;50.666;9.150;2022-11-15T00:21:02;9.90;99.90
41694;DHT22;27377;50.666;9.150;2022-11-15T00:23:28;9.90;99.90
41694;DHT22;27377;50.666;9.150;2022-11-15T00:25:58;9.90;99.90
41694;DHT22;27377;50.666;9.150;2022-11-15T00:28:24;9.90;99.90
41694;DHT22;27377;50.666;9.150;2022-11-15T00:30:50;9.90;99.90
41694;DHT22;27377;50.666;9.150;2022-11-15T00:33:15;9.90;99.90
41694;DHT22;27377;50.666;9.150;2022-11-15T00:35:41;9.90;99.90
41694;DHT22;27377;50.666;9.150;2022-11-15T00:38:06;9.90;99.90
41694;DHT22;27377;50.666;9.150;2022-11-15T00:40:35;9.90;99.90
41694;DHT22;27377;50.666;9.150;2022-11-15T00:43:00;9.90;99.90
41694;DHT22;27377;50.666;9.150;2022-11-15T00:45:26;9.90;99.90
41694;DHT22;27377;50.666;9.150;2022-11-15T00:47:52;9.90;99.90
41694;DHT22;27377;50.666;9.150;2022-11-15T00:50:17;9.90;99.90
41694;DHT22;27377;50.666;9.150;2022-11-15T00:52:43;9.90;99.90
41694;DHT22;27377;50.666;9.150;2022-11-15T00:55:16;9.90;99.90
41694;DHT22;27377;50.666;9.150;2022-11-15T00:57:42;9.90;99.90
41694;DHT22;27377;50.666;9.150;2022-11-15T01:00:09;9.90;99.90
41694;DHT22;27377;50.666;9.150;2022-11-15T01:02:35;9.90;99.90
41694;DHT22;27377;50.666;9.150;2022-11-15T01:05:01;9.90;99.90
41694;DHT22;27377;50.666;9.150;2022-11-15T01:07:26;9.90;99.90
41694;DHT22;27377;50.666;9.150;2022-11-15T01:09:52;9.90;99.90
41694;DHT22;27377;50.666;9.150;2022-11-15T01:12:17;9.90;99.90
41694;DHT22;27377;50.666;9.150;2022-11-15T01:14:43;9.90;99.90
41694;DHT22;27377;50.666;9.150;2022-11-15T01:17:08;9.90;99.90
41694;DHT22;27377;50.666;9.150;2022-11-15T01:19:34;9.90;99.90
41694;DHT22;27377;50.666;9.150;2022-11-15T01:22:00;9.80;99.90
41694;DHT22;27377;50.666;9.150;2022-11-15T01:24:27;9.80;99.90
41694;DHT22;27377;50.666;9.150;2022-11-15T01:26:52;9.80;99.90
41694;DHT22;27377;50.666;9.150;2022-11-15T01:29:18;9.80;99.90
41694;DHT22;27377;50.666;9.150;2022-11-15T01:31:43;9.80;99.90
41694;DHT22;27377;50.666;9.150;2022-11-15T01:34:09;9.80;99.90
41694;DHT22;27377;50.666;9.150;2022-11-15T01:36:34;9.80;99.90
41694;DHT22;27377;50.666;9.150;2022-11-15T01:39:00;9.80;99.90
41694;DHT22;27377;50.666;9.150;2022-11-15T01:41:32;9.80;99.90
41694;DHT22;27377;50.666;9.150;2022-11-15T01:47:04;9.80;99.90
41694;DHT22;27377;50.666;9.150;2022-11-15T01:49:33;9.80;99.90
41694;DHT22;27377;50.666;9.150;2022-11-15T01:52:02;9.80;99.90
41694;DHT22;27377;50.666;9.150;2022-11-15T01:54:29;9.80;99.90
41694;DHT22;27377;50.666;9.150;2022-11-15T01:57:08;9.80;99.90
41694;DHT22;27377;50.666;9.150;2022-11-15T01:59:36;9.80;99.90
41694;DHT22;27377;50.666;9.150;2022-11-15T02:02:02;9.90;99.90
41694;DHT22;27377;50.666;9.150;2022-11-15T02:04:31;9.80;99.90
41694;DHT22;27377;50.666;9.150;2022-11-15T02:06:57;9.80;99.90
41694;DHT22;27377;50.666;9.150;2022-11-15T02:09:23;9.80;99.90
41694;DHT22;27377;50.666;9.150;2022-11-15T02:11:50;9.80;99.90
41694;DHT22;27377;50.666;9.150;2022-11-15T02:14:18;9.80;99.90
41694;DHT22;27377;50.666;9.150;2022-11-15T02:22:35;9.90;99.90
41694;DHT22;27377;50.666;9.150;2022-11-15T02:27:53;9.90;99.90
41694;DHT22;27377;50.666;9.150;2022-11-15T02:33:37;9.90;99.90
41694;DHT22;27377;50.666;9.150;2022-11-15T02:36:13;9.90;99.90
41694;DHT22;27377;50.666;9.150;2022-11-15T02:38:54;9.90;99.90
41694;DHT22;27377;50.666;9.150;2022-11-15T02:44:06;9.90;99.90
41694;DHT22;27377;50.666;9.150;2022-11-15T02:46:37;9.80;99.90
41694;DHT22;27377;50.666;9.150;2022-11-15T02:49:25;9.80;99.90
41694;DHT22;27377;50.666;9.150;2022-11-15T02:51:52;9.90;99.90
41694;DHT22;27377;50.666;9.150;2022-11-15T02:54:22;9.90;99.90
41694;DHT22;27377;50.666;9.150;2022-11-15T02:56:49;9.90;99.90
41694;DHT22;27377;50.666;9.150;2022-11-15T03:10:42;9.90;99.90
41694;DHT22;27377;50.666;9.150;2022-11-15T03:13:11;9.90;99.90
41694;DHT22;27377;50.666;9.150;2022-11-15T03:15:52;9.90;99.90
41694;DHT22;27377;50.666;9.150;2022-11-15T03:18:23;9.90;99.90
41694;DHT22;27377;50.666;9.150;2022-11-15T03:20:54;9.90;99.90
41694;DHT22;27377;50.666;9.150;2022-11-15T03:23:21;9.90;99.90
41694;DHT22;27377;50.666;9.150;2022-11-15T03:25:50;9.90;99.90
41694;DHT22;27377;50.666;9.150;2022-11-15T03:28:22;9.90;99.90
41694;DHT22;27377;50.666;9.150;2022-11-15T03:30:50;9.90;99.90
41694;DHT22;27377;50.666;9.150;2022-11-15T03:33:19;9.90;99.90
41694;DHT22;27377;50.666;9.150;2022-11-15T03:35:46;10.00;99.90
41694;DHT22;27377;50.666;9.150;2022-11-15T03:38:26;10.00;99.90
41694;DHT22;27377;50.666;9.150;2022-11-15T03:41:06;10.00;99.90
41694;DHT22;27377;50.666;9.150;2022-11-15T03:49:08;10.10;99.90
41694;DHT22;27377;50.666;9.150;2022-11-15T03:51:35;10.10;99.90
41694;DHT22;27377;50.666;9.150;2022-11-15T03:54:03;10.20;99.90
41694;DHT22;27377;50.666;9.150;2022-11-15T03:56:29;10.20;99.90
41694;DHT22;27377;50.666;9.150;2022-11-15T03:58:55;10.10;99.90
41694;DHT22;27377;50.666;9.150;2022-11-15T04:01:20;10.10;99.90
41694;DHT22;27377;50.666;9.150;2022-11-15T04:03:46;10.10;99.90
41694;DHT22;27377;50.666;9.150;2022-11-15T04:06:11;10.20;99.90
41694;DHT22;27377;50.666;9.150;2022-11-15T04:08:37;10.10;99.90
41694;DHT22;27377;50.666;9.150;2022-11-15T04:11:05;10.10;99.90
41694;DHT22;27377;50.666;9.150;2022-11-15T04:13:30;10.20;99.90
41694;DHT22;27377;50.666;9.150;2022-11-15T04:15:56;10.20;99.90
41694;DHT22;27377;50.666;9.150;2022-11-15T04:18:22;10.20;99.90
41694;DHT22;27377;50.666;9.150;2022-11-15T04:20:48;10.20;99.90
41694;DHT22;27377;50.666;9.150;2022-11-15T04:23:32;10.20;99.90
41694;DHT22;27377;50.666;9.150;2022-11-15T04:26:18;10.20;99.90
41694;DHT22;27377;50.666;9.150;2022-11-15T04:28:45;10.20;99.90
41694;DHT22;27377;50.666;9.150;2022-11-15T04:31:29;10.30;99.90
41694;DHT22;27377;50.666;9.150;2022-11-15T04:33:55;10.20;99.90
41694;DHT22;27377;50.666;9.150;2022-11-15T04:36:24;10.20;99.90
41694;DHT22;27377;50.666;9.150;2022-11-15T04:39:09;10.30;99.90
41694;DHT22;27377;50.666;9.150;2022-11-15T04:41:37;10.20;99.90
41694;DHT22;27377;50.666;9.150;2022-11-15T04:44:03;10.20;99.90
41694;DHT22;27377;50.666;9.150;2022-11-15T04:46:28;10.20;99.90
41694;DHT22;27377;50.666;9.150;2022-11-15T04:48:54;10.20;99.90
41694;DHT22;27377;50.666;9.150;2022-11-15T04:51:20;10.20;99.90
41694;DHT22;27377;50.666;9.150;2022-11-15T04:53:46;10.10;99.90
41694;DHT22;27377;50.666;9.150;2022-11-15T04:56:12;10.20;99.90
41694;DHT22;27377;50.666;9.150;2022-11-15T04:58:37;10.10;99.90
41694;DHT22;27377;50.666;9.150;2022-11-15T05:01:07;10.10;99.90
41694;DHT22;27377;50.666;9.150;2022-11-15T05:03:33;10.00;99.90
41694;DHT22;27377;50.666;9.150;2022-11-15T05:06:17;10.00;99.90
41694;DHT22;27377;50.666;9.150;2022-11-15T05:08:43;10.00;99.90
41694;DHT22;27377;50.666;9.150;2022-11-15T05:11:08;10.00;99.90
41694;DHT22;27377;50.666;9.150;2022-11-15T05:13:37;10.00;99.90
41694;DHT22;27377;50.666;9.150;2022-11-15T05:16:03;10.00;99.90
41694;DHT22;27377;50.666;9.150;2022-11-15T05:18:28;9.90;99.90
41694;DHT22;27377;50.666;9.150;2022-11-15T05:20:54;9.90;99.90
41694;DHT22;27377;50.666;9.150;2022-11-15T05:23:23;9.90;99.90
41694;DHT22;27377;50.666;9.150;2022-11-15T05:25:48;9.90;99.90
41694;DHT22;27377;50.666;9.150;2022-11-15T05:28:14;9.90;99.90
41694;DHT22;27377;50.666;9.150;2022-11-15T05:30:39;9.90;99.90
41694;DHT22;27377;50.666;9.150;2022-11-15T05:33:08;9.90;99.90
41694;DHT22;27377;50.666;9.150;2022-11-15T05:35:46;9.90;99.90
41694;DHT22;27377;50.666;9.150;2022-11-15T05:38:14;9.90;99.90
41694;DHT22;27377;50.666;9.150;2022-11-15T05:40:40;9.90;99.90
41694;DHT22;27377;50.666;9.150;2022-11-15T05:43:09;9.90;99.90
41694;DHT22;27377;50.666;9.150;2022-11-15T05:45:36;9.90;99.90
41694;DHT22;27377;50.666;9.150;2022-11-15T05:48:07;10.00;99.90
41694;DHT22;27377;50.666;9.150;2022-11-15T05:50:36;10.00;99.90
41694;DHT22;27377;50.666;9.150;2022-11-15T05:53:04;10.00;99.90
41694;DHT22;27377;50.666;9.150;2022-11-15T05:55:30;10.00;99.90
41694;DHT22;27377;50.666;9.150;2022-11-15T05:57:56;10.00;99.90
41694;DHT22;27377;50.666;9.150;2022-11-15T06:00:25;10.00;99.90
41694;DHT22;27377;50.666;9.150;2022-11-15T06:02:50;10.00;99.90
41694;DHT22;27377;50.666;9.150;2022-11-15T06:05:16;10.00;99.90
41694;DHT22;27377;50.666;9.150;2022-11-15T06:07:41;10.00;99.90
41694;DHT22;27377;50.666;9.150;2022-11-15T06:10:07;10.00;99.90
41694;DHT22;27377;50.666;9.150;2022-11-15T06:12:35;10.00;99.90
41694;DHT22;27377;50.666;9.150;2022-11-15T06:15:01;10.00;99.90
41694;DHT22;27377;50.666;9.150;2022-11-15T06:17:26;9.90;99.90
41694;DHT22;27377;50.666;9.150;2022-11-15T06:19:52;9.90;99.90
41694;DHT22;27377;50.666;9.150;2022-11-15T06:22:21;9.90;99.90
41694;DHT22;27377;50.666;9.150;2022-11-15T06:24:46;9.80;99.90
41694;DHT22;27377;50.666;9.150;2022-11-15T06:27:12;9.80;99.90
41694;DHT22;27377;50.666;9.150;2022-11-15T06:29:41;9.80;99.90
41694;DHT22;27377;50.666;9.150;2022-11-15T06:32:06;9.80;99.90
41694;DHT22;27377;50.666;9.150;2022-11-15T06:34:32;9.70;99.90
41694;DHT22;27377;50.666;9.150;2022-11-15T06:36:57;9.60;99.90
41694;DHT22;27377;50.666;9.150;2022-11-15T06:39:23;9.60;99.90
41694;DHT22;27377;50.666;9.150;2022-11-15T06:41:49;9.60;99.90
41694;DHT22;27377;50.666;9.150;2022-11-15T06:44:14;9.50;99.90
41694;DHT22;27377;50.666;9.150;2022-11-15T06:46:43;9.40;99.90
41694;DHT22;27377;50.666;9.150;2022-11-15T06:49:08;9.40;99.90
41694;DHT22;27377;50.666;9.150;2022-11-15T06:51:34;9.30;99.90
41694;DHT22;27377;50.666;9.150;2022-11-15T06:53:59;9.30;99.90
41694;DHT22;27377;50.666;9.150;2022-11-15T06:56:28;9.20;99.90
41694;DHT22;27377;50.666;9.150;2022-11-15T06:58:53;9.20;99.90
41694;DHT22;27377;50.666;9.150;2022-11-15T07:01:20;9.20;99.90
41694;DHT22;27377;50.666;9.150;2022-11-15T07:03:48;9.20;99.90
41694;DHT22;27377;50.666;9.150;2022-11-15T07:06:14;9.30;99.90
41694;DHT22;27377;50.666;9.150;2022-11-15T07:08:40;9.30;99.90
41694;DHT22;27377;50.666;9.150;2022-11-15T07:11:08;9.30;99.90
41694;DHT22;27377;50.666;9.150;2022-11-15T07:13:34;9.30;99.90
41694;DHT22;27377;50.666;9.150;2022-11-15T07:16:06;9.40;99.90
41694;DHT22;27377;50.666;9.150;2022-11-15T07:18:39;9.40;99.90
41694;DHT22;27377;50.666;9.150;2022-11-15T07:21:07;9.40;99.90
41694;DHT22;27377;50.666;9.150;2022-11-15T07:23:36;9.40;99.90
41694;DHT22;27377;50.666;9.150;2022-11-15T07:26:02;9.50;99.90
41694;DHT22;27377;50.666;9.150;2022-11-15T07:28:30;9.50;99.90
41694;DHT22;27377;50.666;9.150;2022-11-15T07:30:55;9.50;99.90
41694;DHT22;27377;50.666;9.150;2022-11-15T07:33:21;9.50;99.90
41694;DHT22;27377;50.666;9.150;2022-11-15T07:35:47;9.50;99.90
41694;DHT22;27377;50.666;9.150;2022-11-15T07:38:16;9.60;99.90
41694;DHT22;27377;50.666;9.150;2022-11-15T07:40:45;9.60;99.90
41694;DHT22;27377;50.666;9.150;2022-11-15T07:43:14;9.60;99.90
41694;DHT22;27377;50.666;9.150;2022-11-15T07:45:43;9.70;99.90
41694;DHT22;27377;50.666;9.150;2022-11-15T07:48:09;9.70;99.90
41694;DHT22;27377;50.666;9.150;2022-11-15T07:50:35;9.70;99.90
41694;DHT22;27377;50.666;9.150;2022-11-15T07:53:00;9.80;99.90
41694;DHT22;27377;50.666;9.150;2022-11-15T07:55:27;9.80;99.90
41694;DHT22;27377;50.666;9.150;2022-11-15T07:58:09;9.80;99.90
41694;DHT22;27377;50.666;9.150;2022-11-15T08:00:36;9.80;99.90
41694;DHT22;27377;50.666;9.150;2022-11-15T08:03:13;9.80;99.90
41694;DHT22;27377;50.666;9.150;2022-11-15T08:05:40;9.90;99.90
41694;DHT22;27377;50.666;9.150;2022-11-15T08:08:07;9.90;99.90
41694;DHT22;27377;50.666;9.150;2022-11-15T08:10:33;10.00;99.90
41694;DHT22;27377;50.666;9.150;2022-11-15T08:13:05;10.00;99.90
41694;DHT22;27377;50.666;9.150;2022-11-15T08:15:31;10.00;99.90
41694;DHT22;27377;50.666;9.150;2022-11-15T08:17:59;10.00;99.90
41694;DHT22;27377;50.666;9.150;2022-11-15T08:20:26;10.10;99.90
41694;DHT22;27377;50.666;9.150;2022-11-15T08:22:58;10.10;99.90
41694;DHT22;27377;50.666;9.150;2022-11-15T08:25:25;10.10;99.90
41694;DHT22;27377;50.666;9.150;2022-11-15T08:27:55;10.10;99.90
41694;DHT22;27377;50.666;9.150;2022-11-15T08:30:21;10.10;99.90
41694;DHT22;27377;50.666;9.150;2022-11-15T08:32:47;10.20;99.90
41694;DHT22;27377;50.666;9.150;2022-11-15T08:35:13;10.20;99.90
41694;DHT22;27377;50.666;9.150;2022-11-15T08:37:39;10.30;99.90
41694;DHT22;27377;50.666;9.150;2022-11-15T08:40:05;10.30;99.90
41694;DHT22;27377;50.666;9.150;2022-11-15T08:42:31;10.30;99.90
41694;DHT22;27377;50.666;9.150;2022-11-15T08:44:57;10.30;99.90
41694;DHT22;27377;50.666;9.150;2022-11-15T08:47:22;10.40;99.90
41694;DHT22;27377;50.666;9.150;2022-11-15T08:49:49;10.40;99.90
41694;DHT22;27377;50.666;9.150;2022-11-15T08:52:15;10.40;99.90
41694;DHT22;27377;50.666;9.150;2022-11-15T08:54:41;10.40;99.90
41694;DHT22;27377;50.666;9.150;2022-11-15T08:57:07;10.40;99.90
41694;DHT22;27377;50.666;9.150;2022-11-15T08:59:35;10.50;99.90
41694;DHT22;27377;50.666;9.150;2022-11-15T09:02:01;10.50;99.90
41694;DHT22;27377;50.666;9.150;2022-11-15T09:04:26;10.50;99.90
41694;DHT22;27377;50.666;9.150;2022-11-15T09:06:52;10.60;99.90
41694;DHT22;27377;50.666;9.150;2022-11-15T09:09:18;10.60;99.90
41694;DHT22;27377;50.666;9.150;2022-11-15T09:11:43;10.70;99.90
41694;DHT22;27377;50.666;9.150;2022-11-15T09:14:11;10.70;99.90
41694;DHT22;27377;50.666;9.150;2022-11-15T09:16:37;10.70;99.90
41694;DHT22;27377;50.666;9.150;2022-11-15T09:19:03;10.70;99.90
41694;DHT22;27377;50.666;9.150;2022-11-15T09:21:30;10.80;99.90
41694;DHT22;27377;50.666;9.150;2022-11-15T09:23:55;10.80;99.90
41694;DHT22;27377;50.666;9.150;2022-11-15T09:26:21;10.80;99.90
41694;DHT22;27377;50.666;9.150;2022-11-15T09:28:47;10.80;99.90
41694;DHT22;27377;50.666;9.150;2022-11-15T09:31:13;10.80;99.90
41694;DHT22;27377;50.666;9.150;2022-11-15T09:33:38;10.80;99.90
41694;DHT22;27377;50.666;9.150;2022-11-15T09:36:07;10.90;99.90
41694;DHT22;27377;50.666;9.150;2022-11-15T09:38:33;10.90;99.90
41694;DHT22;27377;50.666;9.150;2022-11-15T09:43:49;10.90;99.90
41694;DHT22;27377;50.666;9.150;2022-11-15T09:46:43;10.90;99.90
41694;DHT22;27377;50.666;9.150;2022-11-15T09:49:13;11.00;99.90
41694;DHT22;27377;50.666;9.150;2022-11-15T09:51:41;10.90;99.90
41694;DHT22;27377;50.666;9.150;2022-11-15T09:54:38;10.90;99.90
41694;DHT22;27377;50.666;9.150;2022-11-15T09:57:17;10.90;99.90
41694;DHT22;27377;50.666;9.150;2022-11-15T10:05:28;11.00;99.90
41694;DHT22;27377;50.666;9.150;2022-11-15T10:08:16;10.90;99.90
41694;DHT22;27377;50.666;9.150;2022-11-15T10:10:48;11.00;99.90
41694;DHT22;27377;50.666;9.150;2022-11-15T10:13:30;11.00;99.90
41694;DHT22;27377;50.666;9.150;2022-11-15T10:16:09;11.00;99.90
41694;DHT22;27377;50.666;9.150;2022-11-15T10:21:21;11.00;99.90
41694;DHT22;27377;50.666;9.150;2022-11-15T10:23:50;11.00;99.90
41694;DHT22;27377;50.666;9.150;2022-11-15T10:26:17;11.00;99.90
41694;DHT22;27377;50.666;9.150;2022-11-15T10:28:43;11.10;99.90
41694;DHT22;27377;50.666;9.150;2022-11-15T10:31:26;11.10;99.90
41694;DHT22;27377;50.666;9.150;2022-11-15T10:34:10;11.10;99.90
41694;DHT22;27377;50.666;9.150;2022-11-15T10:36:37;11.10;99.90
41694;DHT22;27377;50.666;9.150;2022-11-15T10:39:03;11.10;99.90
41694;DHT22;27377;50.666;9.150;2022-11-15T10:44:20;11.10;99.90
41694;DHT22;27377;50.666;9.150;2022-11-15T10:47:05;11.10;99.90
41694;DHT22;27377;50.666;9.150;2022-11-15T10:49:33;11.10;99.90
41694;DHT22;27377;50.666;9.150;2022-11-15T10:52:02;11.10;99.90
41694;DHT22;27377;50.666;9.150;2022-11-15T10:57:21;11.10;99.90
41694;DHT22;27377;50.666;9.150;2022-11-15T11:00:35;11.10;99.90
41694;DHT22;27377;50.666;9.150;2022-11-15T11:02:45;11.20;99.90
41694;DHT22;27377;50.666;9.150;2022-11-15T11:05:35;11.10;99.90
41694;DHT22;27377;50.666;9.150;2022-11-15T11:08:03;11.20;99.90
41694;DHT22;27377;50.666;9.150;2022-11-15T11:10:30;11.20;99.90
41694;DHT22;27377;50.666;9.150;2022-11-15T11:13:21;11.20;99.90
41694;DHT22;27377;50.666;9.150;2022-11-15T11:16:09;11.30;99.90
41694;DHT22;27377;50.666;9.150;2022-11-15T11:24:36;11.30;99.90
41694;DHT22;27377;50.666;9.150;2022-11-15T11:30:01;11.30;99.90
41694;DHT22;27377;50.666;9.150;2022-11-15T11:33:00;11.40;99.90
41694;DHT22;27377;50.666;9.150;2022-11-15T11:38:15;11.40;99.90
41694;DHT22;27377;50.666;9.150;2022-11-15T11:49:05;11.50;99.90
41694;DHT22;27377;50.666;9.150;2022-11-15T11:51:49;11.50;99.90
41694;DHT22;27377;50.666;9.150;2022-11-15T11:54:38;11.50;99.90
41694;DHT22;27377;50.666;9.150;2022-11-15T11:57:31;11.50;99.90
41694;DHT22;27377;50.666;9.150;2022-11-15T12:02:44;11.60;99.90
41694;DHT22;27377;50.666;9.150;2022-11-15T12:05:35;11.50;99.90
41694;DHT22;27377;50.666;9.150;2022-11-15T12:13:38;11.60;99.90
41694;DHT22;27377;50.666;9.150;2022-11-15T12:18:48;11.60;99.90
41694;DHT22;27377;50.666;9.150;2022-11-15T12:23:58;11.60;99.90
41694;DHT22;27377;50.666;9.150;2022-11-15T12:26:31;11.60;99.90
41694;DHT22;27377;50.666;9.150;2022-11-15T12:29:04;11.60;99.90
41694;DHT22;27377;50.666;9.150;2022-11-15T12:34:13;11.70;99.90
41694;DHT22;27377;50.666;9.150;2022-11-15T12:36:42;11.70;99.90
41694;DHT22;27377;50.666;9.150;2022-11-15T12:39:10;11.60;99.90
41694;DHT22;27377;50.666;9.150;2022-11-15T12:41:40;11.70;99.90
41694;DHT22;27377;50.666;9.150;2022-11-15T12:47:23;11.70;99.90
41694;DHT22;27377;50.666;9.150;2022-11-15T12:49:49;11.70;99.90
41694;DHT22;27377;50.666;9.150;2022-11-15T12:52:16;11.70;99.90
41694;DHT22;27377;50.666;9.150;2022-11-15T13:04:53;11.70;99.90
41694;DHT22;27377;50.666;9.150;2022-11-15T13:07:55;11.80;99.90
41694;DHT22;27377;50.666;9.150;2022-11-15T13:12:58;11.70;99.90
41694;DHT22;27377;50.666;9.150;2022-11-15T13:15:54;11.70;99.90
41694;DHT22;27377;50.666;9.150;2022-11-15T13:18:40;11.70;99.90
41694;DHT22;27377;50.666;9.150;2022-11-15T13:21:27;11.70;99.90
41694;DHT22;27377;50.666;9.150;2022-11-15T13:24:16;11.70;99.90
41694;DHT22;27377;50.666;9.150;2022-11-15T13:26:42;11.80;99.90
41694;DHT22;27377;50.666;9.150;2022-11-15T13:29:18;11.80;99.90
41694;DHT22;27377;50.666;9.150;2022-11-15T13:31:45;11.80;99.90
41694;DHT22;27377;50.666;9.150;2022-11-15T13:36:42;11.80;99.90
41694;DHT22;27377;50.666;9.150;2022-11-15T13:39:30;11.80;99.90
41694;DHT22;27377;50.666;9.150;2022-11-15T13:41:57;11.80;99.90
41694;DHT22;27377;50.666;9.150;2022-11-15T13:44:26;11.80;99.90
41694;DHT22;27377;50.666;9.150;2022-11-15T13:47:15;11.80;99.90
41694;DHT22;27377;50.666;9.150;2022-11-15T13:49:41;11.80;99.90
41694;DHT22;27377;50.666;9.150;2022-11-15T13:52:10;11.70;99.90
41694;DHT22;27377;50.666;9.150;2022-11-15T13:55:01;11.80;99.90
41694;DHT22;27377;50.666;9.150;2022-11-15T14:00:03;11.80;99.90
41694;DHT22;27377;50.666;9.150;2022-11-15T14:02:38;11.80;99.90
41694;DHT22;27377;50.666;9.150;2022-11-15T14:05:19;11.80;99.90
41694;DHT22;27377;50.666;9.150;2022-11-15T14:07:57;11.80;99.90
41694;DHT22;27377;50.666;9.150;2022-11-15T14:12:55;11.80;99.90
41694;DHT22;27377;50.666;9.150;2022-11-15T14:15:33;11.80;99.90
41694;DHT22;27377;50.666;9.150;2022-11-15T14:18:00;11.80;99.90
41694;DHT22;27377;50.666;9.150;2022-11-15T14:20:37;11.80;99.90
41694;DHT22;27377;50.666;9.150;2022-11-15T14:23:28;11.80;99.90
41694;DHT22;27377;50.666;9.150;2022-11-15T14:25:58;11.80;99.90
41694;DHT22;27377;50.666;9.150;2022-11-15T14:30:52;11.80;99.90
41694;DHT22;27377;50.666;9.150;2022-11-15T14:33:38;11.70;99.90
41694;DHT22;27377;50.666;9.150;2022-11-15T14:36:19;11.80;99.90
41694;DHT22;27377;50.666;9.150;2022-11-15T14:38:45;11.80;99.90
41694;DHT22;27377;50.666;9.150;2022-11-15T14:41:23;11.70;99.90
41694;DHT22;27377;50.666;9.150;2022-11-15T14:43:50;11.80;99.90
41694;DHT22;27377;50.666;9.150;2022-11-15T14:46:16;11.70;99.90
41694;DHT22;27377;50.666;9.150;2022-11-15T14:48:42;11.70;99.90
41694;DHT22;27377;50.666;9.150;2022-11-15T14:51:16;11.70;99.90
41694;DHT22;27377;50.666;9.150;2022-11-15T14:53:43;11.70;99.90
41694;DHT22;27377;50.666;9.150;2022-11-15T14:56:09;11.80;99.90
41694;DHT22;27377;50.666;9.150;2022-11-15T14:58:35;11.70;99.90
41694;DHT22;27377;50.666;9.150;2022-11-15T15:01:05;11.70;99.90
41694;DHT22;27377;50.666;9.150;2022-11-15T15:03:34;11.70;99.90
41694;DHT22;27377;50.666;9.150;2022-11-15T15:06:00;11.70;99.90
41694;DHT22;27377;50.666;9.150;2022-11-15T15:08:25;11.70;99.90
41694;DHT22;27377;50.666;9.150;2022-11-15T15:10:51;11.70;99.90
41694;DHT22;27377;50.666;9.150;2022-11-15T15:13:19;11.70;99.90
41694;DHT22;27377;50.666;9.150;2022-11-15T15:15:45;11.70;99.90
41694;DHT22;27377;50.666;9.150;2022-11-15T15:18:11;11.70;99.90
41694;DHT22;27377;50.666;9.150;2022-11-15T15:20:38;11.70;99.90
41694;DHT22;27377;50.666;9.150;2022-11-15T15:23:05;11.60;99.90
41694;DHT22;27377;50.666;9.150;2022-11-15T15:25:33;11.60;99.90
41694;DHT22;27377;50.666;9.150;2022-11-15T15:28:00;11.60;99.90
41694;DHT22;27377;50.666;9.150;2022-11-15T15:30:29;11.60;99.90
41694;DHT22;27377;50.666;9.150;2022-11-15T15:32:55;11.60;99.90
41694;DHT22;27377;50.666;9.150;2022-11-15T15:35:20;11.50;99.90
41694;DHT22;27377;50.666;9.150;2022-11-15T15:37:47;11.50;99.90
41694;DHT22;27377;50.666;9.150;2022-11-15T15:40:18;11.50;99.90
41694;DHT22;27377;50.666;9.150;2022-11-15T15:42:46;11.50;99.90
41694;DHT22;27377;50.666;9.150;2022-11-15T15:45:12;11.50;99.90
41694;DHT22;27377;50.666;9.150;2022-11-15T15:47:38;11.40;99.90
41694;DHT22;27377;50.666;9.150;2022-11-15T15:50:16;11.50;99.90
41694;DHT22;27377;50.666;9.150;2022-11-15T15:52:43;11.40;99.90
41694;DHT22;27377;50.666;9.150;2022-11-15T15:55:08;11.40;99.90
41694;DHT22;27377;50.666;9.150;2022-11-15T15:57:35;11.40;99.90
41694;DHT22;27377;50.666;9.150;2022-11-15T16:00:02;11.40;99.90
41694;DHT22;27377;50.666;9.150;2022-11-15T16:02:28;11.40;99.90
41694;DHT22;27377;50.666;9.150;2022-11-15T16:04:53;11.40;99.90
41694;DHT22;27377;50.666;9.150;2022-11-15T16:07:21;11.40;99.90
41694;DHT22;27377;50.666;9.150;2022-11-15T16:09:49;11.40;99.90
41694;DHT22;27377;50.666;9.150;2022-11-15T16:12:33;11.30;99.90
41694;DHT22;27377;50.666;9.150;2022-11-15T16:15:00;11.30;99.90
41694;DHT22;27377;50.666;9.150;2022-11-15T16:17:30;11.30;99.90
41694;DHT22;27377;50.666;9.150;2022-11-15T16:19:57;11.30;99.90
41694;DHT22;27377;50.666;9.150;2022-11-15T16:22:22;11.30;99.90
41694;DHT22;27377;50.666;9.150;2022-11-15T16:24:48;11.30;99.90
41694;DHT22;27377;50.666;9.150;2022-11-15T16:27:16;11.30;99.90
41694;DHT22;27377;50.666;9.150;2022-11-15T16:29:42;11.20;99.90
41694;DHT22;27377;50.666;9.150;2022-11-15T16:32:08;11.20;99.90
41694;DHT22;27377;50.666;9.150;2022-11-15T16:34:34;11.20;99.90
41694;DHT22;27377;50.666;9.150;2022-11-15T16:37:00;11.20;99.90
41694;DHT22;27377;50.666;9.150;2022-11-15T16:39:25;11.20;99.90
41694;DHT22;27377;50.666;9.150;2022-11-15T16:41:53;11.20;99.90
41694;DHT22;27377;50.666;9.150;2022-11-15T16:44:18;11.20;99.90
41694;DHT22;27377;50.666;9.150;2022-11-15T16:46:44;11.20;99.90
41694;DHT22;27377;50.666;9.150;2022-11-15T16:49:17;11.10;99.90
41694;DHT22;27377;50.666;9.150;2022-11-15T16:51:45;11.10;99.90
41694;DHT22;27377;50.666;9.150;2022-11-15T16:54:11;11.10;99.90
41694;DHT22;27377;50.666;9.150;2022-11-15T16:56:37;11.10;99.90
41694;DHT22;27377;50.666;9.150;2022-11-15T16:59:03;11.10;99.90
41694;DHT22;27377;50.666;9.150;2022-11-15T17:01:30;11.10;99.90
41694;DHT22;27377;50.666;9.150;2022-11-15T17:03:56;11.10;99.90
41694;DHT22;27377;50.666;9.150;2022-11-15T17:06:25;11.10;99.90
41694;DHT22;27377;50.666;9.150;2022-11-15T17:08:57;11.10;99.90
41694;DHT22;27377;50.666;9.150;2022-11-15T17:11:23;11.10;99.90
41694;DHT22;27377;50.666;9.150;2022-11-15T17:13:48;11.00;99.90
41694;DHT22;27377;50.666;9.150;2022-11-15T17:16:17;11.00;99.90
41694;DHT22;27377;50.666;9.150;2022-11-15T17:18:43;11.00;99.90
41694;DHT22;27377;50.666;9.150;2022-11-15T17:21:16;11.00;99.90
41694;DHT22;27377;50.666;9.150;2022-11-15T17:23:43;11.00;99.90
41694;DHT22;27377;50.666;9.150;2022-11-15T17:26:11;11.00;99.90
41694;DHT22;27377;50.666;9.150;2022-11-15T17:28:37;11.00;99.90
41694;DHT22;27377;50.666;9.150;2022-11-15T17:31:06;11.00;99.90
41694;DHT22;27377;50.666;9.150;2022-11-15T17:33:32;11.00;99.90
41694;DHT22;27377;50.666;9.150;2022-11-15T17:36:03;11.00;99.90
41694;DHT22;27377;50.666;9.150;2022-11-15T17:38:30;11.00;99.90
41694;DHT22;27377;50.666;9.150;2022-11-15T17:41:22;11.00;99.90
41694;DHT22;27377;50.666;9.150;2022-11-15T17:43:48;11.00;99.90